createdAt,value
2022-09-07T00:00:40.749Z,97567.91
2022-09-07T00:03:06.881Z,97554.97
2022-09-07T00:05:33.028Z,97565.91
2022-09-07T00:07:59.017Z,97562.38
2022-09-07T00:10:25.023Z,97557.63
2022-09-07T00:12:51.051Z,97554.66
2022-09-07T00:15:17.024Z,97547.63
2022-09-07T00:17:43.932Z,97544.47
2022-09-07T00:20:10.087Z,97545.03
2022-09-07T00:22:36.101Z,97542.66
2022-09-07T00:25:02.084Z,97539.94
2022-09-07T00:27:28.804Z,97534.56
2022-09-07T00:29:55.074Z,97534.28
2022-09-07T00:32:22.715Z,97534.81
2022-09-07T00:34:49.854Z,97539.94
2022-09-07T00:37:16.136Z,97535.63
2022-09-07T00:42:23.265Z,97526.22
2022-09-07T02:50:49.209Z,97430.88
2022-09-07T02:53:15.206Z,97426.59
2022-09-07T02:55:42.031Z,97432.47
2022-09-07T02:58:08.003Z,97432.69
2022-09-07T03:00:33.988Z,97422.16
2022-09-07T03:03:00.169Z,97427.13
2022-09-07T03:05:26.191Z,97423.88
2022-09-07T03:07:53.076Z,97419.47
2022-09-07T03:10:19.047Z,97422.69
2022-09-07T03:12:45.060Z,97411.47
2022-09-07T03:15:11.022Z,97416.13
2022-09-07T03:17:37.801Z,97408.28
2022-09-07T03:20:03.789Z,97404.53
2022-09-07T03:22:29.772Z,97409.66
2022-09-07T03:24:55.769Z,97409.41
2022-09-07T03:27:22.489Z,97403.56
2022-09-07T03:29:48.497Z,97410.22
2022-09-07T03:32:14.467Z,97412.59
2022-09-07T03:34:41.443Z,97418.16
2022-09-07T03:37:07.464Z,97409.56
2022-09-07T03:39:33.474Z,97407.16
2022-09-07T03:42:00.336Z,97407.66
2022-09-07T03:44:26.301Z,97402.28
2022-09-07T03:46:53.071Z,97406.28
2022-09-07T03:49:19.120Z,97408.66
2022-09-07T03:51:45.106Z,97408.66
2022-09-07T03:54:11.865Z,97411.25
2022-09-07T03:56:37.871Z,97413.97
2022-09-07T03:59:03.872Z,97418.81
2022-09-07T04:01:30.715Z,97414.75
2022-09-07T04:04:01.804Z,97409.09
2022-09-07T04:06:28.278Z,97411.78
2022-09-07T04:08:54.264Z,97407.47
2022-09-07T04:11:20.311Z,97416.84
2022-09-07T04:13:46.308Z,97426.47
2022-09-07T04:16:12.993Z,97438.13
2022-09-07T04:18:38.989Z,97430.41
2022-09-07T04:21:04.989Z,97427.84
2022-09-07T04:23:31.677Z,97433.50
2022-09-07T04:25:57.664Z,97424.41
2022-09-07T04:28:24.600Z,97426.22
2022-09-07T04:30:51.340Z,97428.34
2022-09-07T04:33:17.390Z,97435.47
2022-09-07T04:35:44.075Z,97450.84
2022-09-07T04:38:10.123Z,97443.78
2022-09-07T04:40:36.899Z,97448.69
2022-09-07T04:43:02.876Z,97453.56
2022-09-07T04:45:28.876Z,97449.75
2022-09-07T04:47:55.651Z,97447.00
2022-09-07T04:50:22.830Z,97453.16
2022-09-07T04:52:48.831Z,97448.72
2022-09-07T04:55:14.837Z,97439.50
2022-09-07T04:57:41.555Z,97440.25
2022-09-07T05:00:07.543Z,97448.38
2022-09-07T05:02:33.576Z,97457.25
2022-09-07T05:05:02.754Z,97456.19
2022-09-07T05:07:29.078Z,97454.88
2022-09-07T05:09:55.048Z,97457.09
2022-09-07T05:12:21.932Z,97459.03
2022-09-07T05:14:48.585Z,97461.72
2022-09-07T05:17:14.593Z,97455.97
2022-09-07T05:19:41.550Z,97460.09
2022-09-07T05:22:07.573Z,97452.63
2022-09-07T05:24:33.612Z,97461.00
2022-09-07T05:26:59.579Z,97451.63
2022-09-07T05:32:13.494Z,97454.41
2022-09-07T05:34:39.780Z,97458.16
2022-09-07T05:37:06.031Z,97460.91
2022-09-07T05:39:32.421Z,97459.03
2022-09-07T05:41:59.486Z,97464.94
2022-09-07T07:44:11.897Z,97482.03
2022-09-07T07:46:37.897Z,97490.34
2022-09-07T07:49:04.679Z,97488.69
2022-09-07T07:51:30.881Z,97495.06
2022-09-07T07:53:57.116Z,97490.50
2022-09-07T07:56:24.238Z,97485.63
2022-09-07T07:58:50.196Z,97484.28
2022-09-07T08:01:16.529Z,97484.84
2022-09-07T08:03:42.993Z,97474.91
2022-09-07T08:06:09.797Z,97482.19
2022-09-07T08:08:35.733Z,97479.69
2022-09-07T08:11:01.703Z,97480.00
2022-09-07T08:13:27.739Z,97484.44
2022-09-07T08:15:53.712Z,97486.91
2022-09-07T08:18:20.589Z,97487.06
2022-09-07T08:20:46.513Z,97486.84
2022-09-07T08:23:13.325Z,97472.59
2022-09-07T08:25:39.306Z,97486.25
2022-09-07T08:28:05.259Z,97479.75
2022-09-07T08:30:32.101Z,97483.97
2022-09-07T08:32:58.356Z,97478.56
2022-09-07T08:35:24.321Z,97482.47
2022-09-07T08:37:50.262Z,97475.59
2022-09-07T08:40:17.038Z,97471.94
2022-09-07T08:42:43.136Z,97471.59
2022-09-07T08:45:09.076Z,97471.88
2022-09-07T08:47:35.939Z,97467.81
2022-09-07T08:50:01.908Z,97473.22
2022-09-07T08:52:27.884Z,97472.38
2022-09-07T08:54:54.525Z,97472.38
2022-09-07T08:57:21.036Z,97468.66
2022-09-07T08:59:47.303Z,97468.31
2022-09-07T09:02:31.750Z,97463.22
2022-09-07T09:05:16.690Z,97465.91
2022-09-07T09:07:44.548Z,97471.72
2022-09-07T09:10:10.531Z,97470.84
2022-09-07T09:12:37.814Z,97460.56
2022-09-07T09:15:03.952Z,97471.34
2022-09-07T09:17:29.951Z,97463.22
2022-09-07T09:19:56.766Z,97468.72
2022-09-07T09:22:22.889Z,97469.50
2022-09-07T09:24:48.850Z,97463.75
2022-09-07T09:27:15.597Z,97465.63
2022-09-07T09:29:41.546Z,97450.88
2022-09-07T09:32:07.479Z,97446.91
2022-09-07T09:34:35.201Z,97441.56
2022-09-07T09:37:01.280Z,97441.25
2022-09-07T09:39:27.364Z,97433.06
2022-09-07T09:41:53.396Z,97432.66
2022-09-07T09:44:20.073Z,97434.34
2022-09-07T09:46:46.220Z,97435.66
2022-09-07T09:49:12.794Z,97440.78
2022-09-07T09:54:24.713Z,97433.28
2022-09-07T09:56:50.646Z,97426.81
2022-09-07T10:04:49.317Z,97419.56
2022-09-07T10:07:16.045Z,97417.69
2022-09-07T10:09:42.044Z,97414.84
2022-09-07T10:12:08.549Z,97416.91
2022-09-07T10:14:35.087Z,97414.16
2022-09-07T10:17:02.743Z,97409.91
2022-09-07T10:19:28.985Z,97410.81
2022-09-07T10:21:56.479Z,97413.63
2022-09-07T10:24:22.790Z,97414.59
2022-09-07T10:26:49.537Z,97412.00
2022-09-07T10:29:16.196Z,97409.94
2022-09-07T10:31:43.739Z,97403.78
2022-09-07T12:32:58.353Z,97316.75
2022-09-07T12:35:25.399Z,97307.38
2022-09-07T12:37:51.414Z,97316.00
2022-09-07T12:40:17.427Z,97309.94
2022-09-07T12:42:44.234Z,97297.03
2022-09-07T12:45:10.181Z,97290.53
2022-09-07T12:47:36.871Z,97288.34
2022-09-07T12:50:02.923Z,97302.09
2022-09-07T12:52:31.505Z,97306.44
2022-09-07T12:55:26.015Z,97288.88
2022-09-07T12:57:43.530Z,97289.47
2022-09-07T13:00:09.482Z,97293.41
2022-09-07T13:02:36.267Z,97303.28
2022-09-07T13:05:02.277Z,97301.69
2022-09-07T13:07:28.200Z,97302.53
2022-09-07T13:09:55.027Z,97301.00
2022-09-07T13:15:12.637Z,97289.69
2022-09-07T13:17:43.849Z,97295.66
2022-09-07T13:20:10.420Z,97303.44
2022-09-07T13:22:37.134Z,97313.88
2022-09-07T13:25:03.206Z,97312.16
2022-09-07T13:27:29.237Z,97297.97
2022-09-07T13:29:55.377Z,97296.03
2022-09-07T13:32:21.933Z,97284.97
2022-09-07T13:34:47.914Z,97297.19
2022-09-07T13:37:14.427Z,97315.28
2022-09-07T13:39:40.416Z,97299.91
2022-09-07T13:42:06.400Z,97290.50
2022-09-07T13:44:32.375Z,97294.94
2022-09-07T13:46:58.347Z,97305.53
2022-09-07T13:49:24.271Z,97302.22
2022-09-07T13:51:50.933Z,97294.72
2022-09-07T13:54:16.895Z,97301.78
2022-09-07T13:56:42.906Z,97290.69
2022-09-07T13:59:08.874Z,97298.03
2022-09-07T14:01:35.630Z,97307.56
2022-09-07T14:04:01.963Z,97317.84
2022-09-07T14:06:27.898Z,97332.47
2022-09-07T14:08:55.092Z,97356.84
2022-09-07T14:11:21.047Z,97377.81
2022-09-07T14:13:46.983Z,97396.50
2022-09-07T14:16:12.957Z,97410.66
2022-09-07T14:18:38.923Z,97433.03
2022-09-07T14:21:04.948Z,97448.19
2022-09-07T14:23:30.987Z,97462.00
2022-09-07T14:28:43.753Z,97473.97
2022-09-07T14:31:09.775Z,97468.34
2022-09-07T14:33:35.773Z,97474.81
2022-09-07T14:36:17.792Z,97490.69
2022-09-07T14:39:04.257Z,97485.84
2022-09-07T14:41:30.547Z,97477.19
2022-09-07T14:43:57.117Z,97480.66
2022-09-07T14:46:23.269Z,97475.31
2022-09-07T14:48:49.276Z,97482.34
2022-09-07T14:51:30.390Z,97480.09
2022-09-07T14:54:01.226Z,97469.19
2022-09-07T14:56:27.215Z,97465.84
2022-09-07T14:58:53.168Z,97470.22
2022-09-07T15:04:05.200Z,97462.78
2022-09-07T15:09:17.714Z,97453.06
2022-09-07T15:11:45.428Z,97448.56
2022-09-07T15:14:11.700Z,97440.69
2022-09-07T15:16:39.194Z,97438.88
2022-09-07T15:19:05.463Z,97436.28
2022-09-07T15:21:32.150Z,97428.81
2022-09-07T15:23:58.236Z,97427.91
2022-09-07T17:33:33.749Z,97462.97
2022-09-07T17:35:59.692Z,97453.31
2022-09-07T17:41:11.661Z,97450.88
2022-09-07T17:43:39.301Z,97469.44
2022-09-07T17:46:07.838Z,97461.91
2022-09-07T17:48:34.982Z,97458.69
2022-09-07T17:51:01.044Z,97453.31
2022-09-07T17:53:27.037Z,97449.03
2022-09-07T17:55:52.981Z,97437.19
2022-09-07T17:58:19.008Z,97437.47
2022-09-07T18:00:45.061Z,97431.59
2022-09-07T18:03:12.159Z,97429.16
2022-09-07T18:05:38.142Z,97418.97
2022-09-07T18:08:04.087Z,97413.84
2022-09-07T18:11:45.105Z,97407.16
2022-09-07T18:13:18.052Z,97403.38
2022-09-07T18:15:44.160Z,97403.38
2022-09-07T18:18:10.132Z,97393.16
2022-09-07T18:20:36.080Z,97401.78
2022-09-07T18:23:02.059Z,97397.69
2022-09-07T18:25:28.037Z,97402.00
2022-09-07T18:30:41.402Z,97399.63
2022-09-07T18:33:07.371Z,97400.72
2022-09-07T18:35:34.177Z,97401.72
2022-09-07T18:38:01.772Z,97386.44
2022-09-07T18:40:27.818Z,97383.47
2022-09-07T18:42:53.781Z,97388.91
2022-09-07T18:45:27.891Z,97381.38
2022-09-07T18:47:54.992Z,97385.63
2022-09-07T18:50:21.634Z,97384.81
2022-09-07T18:52:59.163Z,97369.81
2022-09-07T18:55:30.387Z,97381.88
2022-09-07T18:57:56.366Z,97375.72
2022-09-07T19:00:22.325Z,97379.19
2022-09-07T19:02:48.302Z,97381.13
2022-09-07T19:08:01.803Z,97363.09
2022-09-07T19:10:27.736Z,97366.81
2022-09-07T19:12:54.605Z,97362.53
2022-09-07T19:15:20.741Z,97361.47
2022-09-07T19:17:46.742Z,97366.28
2022-09-07T19:20:13.465Z,97378.94
2022-09-07T19:22:39.467Z,97374.63
2022-09-07T19:25:05.434Z,97377.28
2022-09-07T19:27:31.366Z,97364.97
2022-09-07T19:29:58.080Z,97359.34
2022-09-07T19:32:24.032Z,97365.25
2022-09-07T19:34:50.009Z,97371.63
2022-09-07T19:37:16.841Z,97374.34
2022-09-07T19:39:42.845Z,97377.28
2022-09-07T19:42:08.851Z,97364.41
2022-09-07T19:44:35.538Z,97362.56
2022-09-07T19:47:01.652Z,97362.56
2022-09-07T19:49:27.663Z,97357.47
2022-09-07T19:51:54.546Z,97360.38
2022-09-07T19:54:20.518Z,97352.06
2022-09-07T19:56:46.545Z,97336.53
2022-09-07T19:59:13.366Z,97342.38
2022-09-07T20:01:39.310Z,97346.38
2022-09-07T20:04:05.785Z,97346.63
2022-09-07T20:06:32.663Z,97344.72
2022-09-07T20:08:58.649Z,97347.38
2022-09-07T20:11:24.939Z,97351.34
2022-09-07T20:13:51.221Z,97345.69
2022-09-07T20:16:17.565Z,97339.88
2022-09-07T20:18:44.847Z,97338.00
2022-09-07T20:21:11.104Z,97335.78
2022-09-07T20:26:14.196Z,97330.91
2022-09-07T22:22:43.399Z,97290.81
2022-09-07T22:25:09.351Z,97292.81
2022-09-07T22:27:36.217Z,97296.75
2022-09-07T22:30:02.224Z,97286.84
2022-09-07T22:32:28.209Z,97288.31
2022-09-07T22:34:54.765Z,97288.00
2022-09-07T22:37:20.718Z,97282.91
2022-09-07T22:39:46.748Z,97273.31
2022-09-07T22:42:12.841Z,97270.63
2022-09-07T22:44:38.805Z,97259.09
2022-09-07T22:47:05.183Z,97266.78
2022-09-07T22:49:31.136Z,97267.94
2022-09-07T22:51:57.106Z,97266.41
2022-09-07T22:54:23.813Z,97256.09
2022-09-07T22:56:49.796Z,97251.06
2022-09-07T22:59:15.726Z,97250.69
2022-09-07T23:01:42.523Z,97246.38
2022-09-07T23:04:08.661Z,97244.19
2022-09-07T23:06:35.639Z,97246.97
2022-09-07T23:09:01.644Z,97242.63
2022-09-07T23:11:27.630Z,97242.97
2022-09-07T23:13:53.607Z,97239.28
2022-09-07T23:16:19.616Z,97242.97
2022-09-07T23:18:46.258Z,97239.22
2022-09-07T23:21:12.180Z,97236.84
2022-09-07T23:23:38.145Z,97240.44
2022-09-07T23:26:04.794Z,97228.25
2022-09-07T23:28:30.761Z,97230.63
2022-09-07T23:30:56.778Z,97230.41
2022-09-07T23:33:22.738Z,97217.88
2022-09-07T23:35:48.692Z,97214.09
2022-09-07T23:38:14.624Z,97206.13
2022-09-07T23:40:41.223Z,97206.28
2022-09-07T23:43:07.217Z,97203.16
2022-09-07T23:45:33.148Z,97211.38
2022-09-07T23:48:00.118Z,97210.28
2022-09-07T23:50:26.095Z,97213.13
2022-09-07T23:52:52.088Z,97215.53
2022-09-07T23:55:18.039Z,97219.78
2022-09-07T23:57:44.674Z,97214.81
